Latest Coastal Weather Observations for Cape Nelson

IDS60701

Issued at 9:41 am CST Saturday 20 April 2024 (issued every 10 minutes, with the page automatically refreshed every 10 minutes)

About coastal observations | Map of coastal stations | Coastal observations for SA | Marine services | Other Formats
Station Details ID: 090184 Name: CAPE NELSON LIGHTHOUSE Lat: -38.43 Lon: 141.54 Height: 45.4 m
Data from the previous 72 hours. | See also: Recent months at Cape Nelson
Date/Time
CST
Wind Sea
Height
m
Swell Vis
km
Cloud Weather Temp
°C
Press
MSL
hPa
Rain since
9am
mm
Dir  Spd
kts
Gust
kts
Height
m
Period
s
Dir
20/09:30am S 6 11 - - - - - - - 13.8 1032.7 0.0
20/09:00am S 5 10 - - - - - - - 13.8 1032.7 0.0
20/08:30am S 8 13 - - - - - - - 13.4 1032.4 0.2
20/08:00am SSE 1 4 - - - - - - - 13.3 1032.1 0.2
20/07:30am SSE 5 10 - - - - - - - 12.9 1031.7 0.2
20/07:00am SSW 6 9 - - - - - - - 12.8 1031.5 0.2
20/06:30am SSE 10 13 - - - - - - - 13.0 1031.2 0.2
20/06:00am SSE 6 9 - - - - - - - 12.9 1030.9 0.2
20/05:30am S 7 12 - - - - - - - 12.8 1030.9 0.2
20/05:00am SSE 5 8 - - - - - - - 12.7 1030.7 0.2
20/04:30am S 7 11 - - - - - - - 12.9 1030.6 0.2
20/04:00am S 9 12 - - - - - - - 12.9 1030.5 0.2
20/03:30am SE 6 11 - - - - - - - 12.8 1030.2 0.2
20/03:00am SSE 7 12 - - - - - - - 12.7 1030.0 0.2
20/02:30am SE 7 12 - - - - - - - 12.8 1030.1 0.2
20/02:00am SSE 9 14 - - - - - - - 12.8 1030.3 0.2
20/01:30am SE 9 13 - - - - - - - 13.0 1030.5 0.2
20/01:00am SE 9 13 - - - - - - - 13.2 1030.4 0.2
20/12:30am S 10 15 - - - - - - - 13.3 1030.4 0.2
20/12:00am SSE 11 16 - - - - - - - 13.4 1030.2 0.2
 
Date/Time
CST
Wind Sea
Height
m
Swell Vis
km
Cloud Weather Temp
°C
Press
MSL
hPa
Rain since
9am
mm
Dir  Spd
kts
Gust
kts
Height
m
Period
s
Dir
19/11:30pm SE 7 12 - - - - - - - 13.5 1029.9 0.2
19/11:00pm SSE 11 15 - - - - - - - 13.6 1030.1 0.2
19/10:30pm SSE 11 16 - - - - - - - 13.8 1030.4 0.2
19/10:00pm SSE 13 17 - - - - - - - 13.8 1030.6 0.2
19/09:30pm SSE 13 18 - - - - - - - 14.0 1030.6 0.2
19/09:00pm SE 10 17 - - - - - - - 14.1 1030.4 0.2
19/08:30pm SSE 11 16 - - - - - - - 14.2 1030.1 0.2
19/08:00pm SSE 14 20 - - - - - - - 14.2 1030.0 0.2
19/07:30pm SSE 14 19 - - - - - - - 14.3 1029.9 0.2
19/07:00pm SSE 14 20 - - - - - - - 14.4 1029.6 0.2
19/06:30pm SSE 13 18 - - - - - - - 14.4 1028.9 0.2
19/06:00pm SSE 14 17 - - - - - - - 14.3 1028.7 0.2
19/05:30pm SSE 17 21 - - - - - - - 14.4 1028.3 0.2
19/05:00pm S 16 21 - - - - - - - 14.7 1027.9 0.2
19/04:30pm S 16 21 - - - - - - - 14.6 1027.8 0.2
19/04:00pm SSE 18 24 - - - - - - - 14.9 1027.4 0.2
19/03:30pm SSE 16 23 - - - - - - - 15.4 1027.0 0.2
19/03:00pm SSE 16 20 - - - - - - - 15.8 1026.8 0.2
19/02:30pm SSE 17 21 - - - - - - - 15.5 1026.4 0.2
19/02:00pm SSE 16 20 - - - - - - - 16.0 1026.2 0.2
19/01:30pm SSE 17 24 - - - - - - - 15.9 1026.0 0.2
19/01:00pm SSE 17 23 - - - - - - - 16.0 1026.0 0.2
19/12:30pm SSE 16 20 - - - - - - - 15.8 1026.0 0.2
19/12:00pm SSE 18 23 - - - - - - - 15.2 1026.3 0.2
19/11:30am S 19 25 - - - - - - Recent precip. 15.4 1026.6 0.2
19/11:00am SSE 17 24 - - - - - - - 14.0 1026.3 0.2
19/10:43am SSE 17 28 - - - - - - - 14.6 1026.3 0.0
19/10:30am SSE 15 22 - - - - - - - 14.7 1026.0 0.0
19/10:00am SSE 15 22 - - - - - - - 14.6 1025.4 0.0
19/09:37am SSE 16 26 - - - - - - - 15.1 1025.1 0.0
19/09:30am SSE 17 21 - - - - - - - 15.1 1025.2 0.0
19/09:00am SSE 17 21 - - - - - - - 14.8 1025.0 0.0
19/08:30am SSE 16 21 - - - - - - - 14.2 1024.5 5.6
19/08:00am SSE 15 19 - - - - - - - 13.8 1024.1 5.6
19/07:30am SSE 16 21 - - - - - - - 13.1 1023.6 5.6
19/07:00am S 17 27 - - - - - - - 12.6 1023.4 5.6
19/06:48am SSE 15 25 - - - - - - - 13.0 1023.3 5.2
19/06:30am S 16 22 - - - - - - - 13.0 1022.8 5.2
19/06:00am S 20 29 - - - - - - - 12.7 1022.8 5.2
19/05:30am S 16 26 - - - - - - - 12.6 1022.5 5.2
19/05:06am S 20 30 - - - - - - - 12.7 1022.1 5.2
19/05:00am S 23 30 - - - - - - - 12.8 1022.0 5.2
19/04:30am S 23 31 - - - - - - - 13.4 1021.4 5.2
19/04:00am S 19 26 - - - - - - - 13.9 1020.8 5.2
19/03:45am S 16 26 - - - - - - - 13.5 1020.7 5.2
19/03:30am S 21 28 - - - - - - - 12.8 1020.6 5.2
19/03:00am S 18 23 - - - - - - - 13.4 1020.4 5.2
19/02:30am S 16 26 - - - - - - - 13.1 1020.5 5.2
19/02:27am S 15 26 - - - - - - - 13.1 1020.5 5.2
19/02:00am SSW 17 23 - - - - - - - 13.3 1020.6 5.2
19/01:30am S 17 25 - - - - - - - 13.5 1020.6 5.2
19/01:00am S 16 23 - - - - - - - 13.4 1020.3 5.2
19/12:30am SSW 16 25 - - - - - - - 13.1 1020.1 5.2
19/12:13am S 16 31 - - - - - - - 12.9 1020.1 5.2
19/12:00am S 16 22 - - - - - - - 12.4 1020.1 5.2
 
Date/Time
CST
Wind Sea
Height
m
Swell Vis
km
Cloud Weather Temp
°C
Press
MSL
hPa
Rain since
9am
mm
Dir  Spd
kts
Gust
kts
Height
m
Period
s
Dir
18/11:30pm SSW 19 27 - - - - - - Recent precip. 13.0 1020.1 5.0
18/11:00pm S 14 21 - - - - - - - 12.8 1020.2 4.8
18/10:30pm SSW 19 23 - - - - - - - 13.8 1020.1 4.8
18/10:00pm S 11 24 - - - - - - - 14.2 1020.1 4.8
18/09:30pm SSE 11 19 - - - - - - - 14.4 1019.6 4.8
18/09:12pm S 17 27 - - - - - - - 14.4 1019.6 4.8
18/09:00pm S 17 25 - - - - - - - 14.6 1019.7 4.8
18/08:55pm S 15 25 - - - - - - - 14.3 1019.8 4.8
18/08:30pm S 13 23 - - - - - - - 14.5 1019.3 4.8
18/08:00pm S 13 22 - - - - - - - 14.7 1018.9 4.8
18/07:30pm S 16 29 - - - - - - - 14.6 1018.6 4.8
18/07:00pm SSW 20 30 - - - - - - - 14.5 1018.7 4.8
18/06:35pm S 16 28 - - - - - - - 14.4 1018.5 4.6
18/06:30pm S 14 24 - - - - - - - 14.0 1018.4 4.6
18/06:00pm W 16 21 - - - - - - - 14.8 1018.1 3.4
18/05:30pm W 17 28 - - - - - - Recent precip. 14.8 1018.0 3.2
18/05:08pm W 15 25 - - - - - - - 14.7 1018.2 3.2
18/05:00pm W 17 25 - - - - - - - 14.7 1018.2 3.2
18/04:30pm W 19 27 - - - - - - - 14.4 1018.3 2.6
18/04:00pm WNW 15 23 - - - - - - - 14.4 1018.6 2.0
18/03:57pm WNW 15 25 - - - - - - - 14.5 1018.6 2.0
18/03:30pm WNW 17 24 - - - - - - - 14.2 1018.8 1.4
18/03:00pm WNW 15 23 - - - - - - - 14.2 1019.1 1.0
18/02:30pm WNW 15 21 - - - - - - Recent precip. 14.0 1019.3 0.6
18/02:01pm W 15 28 - - - - - - - 14.1 1019.4 0.4
18/02:00pm WNW 14 25 - - - - - - - 14.1 1019.4 0.4
18/01:41pm WNW 15 27 - - - - - - - 14.3 1019.7 0.2
18/01:30pm WNW 15 22 - - - - - - - 14.1 1019.7 0.0
18/01:02pm WNW 17 27 - - - - - - - 14.1 1020.1 0.0
18/01:00pm WNW 16 25 - - - - - - - 14.3 1020.2 0.0
18/12:39pm WNW 18 29 - - - - - - - 14.8 1020.5 0.0
18/12:30pm WNW 14 19 - - - - - - - 15.0 1020.7 0.0
18/12:05pm WNW 18 28 - - - - - - - 14.9 1021.1 0.0
18/12:00pm WNW 17 24 - - - - - - - 14.9 1021.2 0.0
18/11:32am WNW 15 27 - - - - - - - 14.6 1021.6 0.0
18/11:30am WNW 14 27 - - - - - - - 14.6 1021.7 0.0
18/11:00am WNW 14 21 - - - - - - - 14.3 1022.1 0.0
18/10:32am WNW 17 27 - - - - - - - 14.5 1022.1 0.0
18/10:30am WNW 17 24 - - - - - - - 14.5 1022.1 0.0
18/10:20am WNW 15 25 - - - - - - - 14.9 1022.2 0.0
18/10:00am W 14 22 - - - - - - - 15.2 1022.4 0.0
18/09:30am WNW 14 24 - - - - - - - 14.4 1022.6 0.0
18/09:00am WNW 11 17 - - - - - - - 13.9 1022.9 0.0
18/08:30am W 12 18 - - - - - - - 14.4 1023.1 0.0
18/08:00am WNW 14 21 - - - - - - - 13.8 1023.1 0.0
18/07:30am WNW 15 24 - - - - - - - 13.4 1023.1 0.0
18/07:00am WNW 12 17 - - - - - - - 13.7 1023.2 0.0
18/06:30am WNW 11 15 - - - - - - - 13.3 1023.3 0.0
18/06:00am W 13 25 - - - - - - - 13.3 1023.6 0.0
18/05:58am W 15 25 - - - - - - - 13.4 1023.6 0.0
18/05:44am W 17 24 - - - - - - - 13.6 1023.4 0.0
18/05:30am WNW 14 20 - - - - - - - 14.1 1023.3 0.0
18/05:00am NNW 10 17 - - - - - - - 14.1 1023.5 0.0
18/04:30am W 12 18 - - - - - - - 14.0 1023.7 0.0
18/04:00am W 12 16 - - - - - - - 14.0 1023.9 0.0
18/03:30am NNW 7 17 - - - - - - - 13.7 1024.1 0.0
18/03:00am NNE 7 10 - - - - - - - 13.7 1024.2 0.0
18/02:30am NNE 8 12 - - - - - - - 13.8 1024.6 0.0
18/02:00am NNW 9 16 - - - - - - - 14.0 1025.0 0.0
18/01:30am NE 6 10 - - - - - - - 14.1 1025.4 0.0
18/01:00am E 7 12 - - - - - - - 14.2 1025.6 0.0
18/12:30am SE 7 13 - - - - - - - 14.2 1025.6 0.0
18/12:00am ESE 6 11 - - - - - - - 14.3 1025.9 0.0
 
Date/Time
CST
Wind Sea
Height
m
Swell Vis
km
Cloud Weather Temp
°C
Press
MSL
hPa
Rain since
9am
mm
Dir  Spd
kts
Gust
kts
Height
m
Period
s
Dir
17/11:30pm SE 5 9 - - - - - - - 14.1 1026.1 0.0
17/11:00pm SE 6 10 - - - - - - - 14.1 1026.3 0.0
17/10:30pm S 7 11 - - - - - - - 14.1 1026.4 0.0
17/10:00pm SSW 7 10 - - - - - - - 14.0 1026.7 0.0
17/09:30pm S 8 12 - - - - - - - 14.2 1027.0 0.0
17/09:00pm S 7 11 - - - - - - - 14.3 1027.0 0.0
17/08:30pm S 9 13 - - - - - - - 13.9 1027.2 0.0
17/08:00pm S 11 14 - - - - - - - 14.0 1027.2 0.0
17/07:30pm SSW 12 17 - - - - - - - 13.8 1027.2 0.0
17/07:00pm S 10 15 - - - - - - - 14.2 1027.1 0.0
17/06:30pm S 10 13 - - - - - - - 14.0 1027.0 0.0
17/06:00pm S 12 15 - - - - - - - 13.9 1026.9 0.0
17/05:30pm S 12 16 - - - - - - - 13.8 1026.8 0.0
17/05:00pm S 9 13 - - - - - - - 13.7 1026.7 0.0
17/04:30pm S 11 15 - - - - - - - 14.0 1026.6 0.0
17/04:00pm S 11 15 - - - - - - - 14.5 1026.8 0.0
17/03:30pm S 9 13 - - - - - - - 15.0 1026.9 0.0
17/03:00pm S 10 13 - - - - - - - 14.7 1027.0 0.0
17/02:30pm S 9 13 - - - - - - - 15.8 1026.9 0.0
17/02:00pm S 9 11 - - - - - - - 15.8 1026.9 0.0
17/01:30pm S 9 11 - - - - - - - 16.2 1027.1 0.0
17/01:00pm S 6 7 - - - - - - - 16.1 1027.5 0.0
17/12:30pm S 10 13 - - - - - - - 15.1 1027.9 0.0
17/12:00pm S 11 14 - - - - - - - 14.4 1028.1 0.0
17/11:30am SSW 13 17 - - - - - - - 14.4 1028.5 0.0
17/11:00am SSW 9 13 - - - - - - - 14.2 1028.6 0.0
17/10:30am SSW 13 16 - - - - - - - 13.7 1028.6 0.0
17/10:00am S 12 18 - - - - - - - 13.9 1028.6 0.0
17/09:30am S 9 11 - - - - - - - 14.8 1028.6 0.0

Other formats

Comma delimited format used in spreadsheet applications
http://www.bom.gov.au/fwo/IDS60701/IDS60701.94826.axf

JavaScript Object Notation format (JSON) in row-major order
http://www.bom.gov.au/fwo/IDS60701/IDS60701.94826.json

Data quality

Most of these data are generated automatically and are frequently updated. Quality checks on data are not normally performed. It is possible for incorrect values to appear. Refer to information at About Latest Weather Observations and please check the disclaimer before using these data.